Aviation Digital Data Service (ADDS)

Output produced by METARs form (2013 UTC 23 January 2019)
found at http://www.aviationweather.gov/metar/data/
 
METAR text: UACK 231130Z 22008MPS 9999 DRSN OVC017 M06/M08 Q1019 R20/810260 NOSIG RMK QFE740/0987
Conditions at: UACK (KOKSHETAU , KZ) observed 1130 UTC 23 January 2019
Temperature: -6.0°C (21°F)
Dewpoint: -8.0°C (18°F) [RH = 86%]
Pressure (altimeter): 30.09 inches Hg (1019.0 mb)
Winds: from the SW (220 degrees) at 18 MPH (16 knots; 8.2 m/s)
Visibility: 6 or more miles (10+ km)
Ceiling: 1700 feet AGL
Clouds: overcast cloud deck at 1700 feet AGL
Weather: DRSN  (low drifting snow)

METAR text: UACK 231100Z 23008MPS 9999 DRSN OVC016 M06/M08 Q1019 R20/810260 NOSIG RMK QFE740/0987
Conditions at: UACK (KOKSHETAU , KZ) observed 1100 UTC 23 January 2019
Temperature: -6.0°C (21°F)
Dewpoint: -8.0°C (18°F) [RH = 86%]
Pressure (altimeter): 30.09 inches Hg (1019.0 mb)
Winds: from the SW (230 degrees) at 18 MPH (16 knots; 8.2 m/s)
Visibility: 6 or more miles (10+ km)
Ceiling: 1600 feet AGL
Clouds: overcast cloud deck at 1600 feet AGL
Weather: DRSN  (low drifting snow)

METAR text: UACK 231030Z 22009MPS 9999 DRSN BKN018 OVC076 M06/M08 Q1019 R20/810260 NOSIG RMK QFE741/0988
Conditions at: UACK (KOKSHETAU , KZ) observed 1030 UTC 23 January 2019
Temperature: -6.0°C (21°F)
Dewpoint: -8.0°C (18°F) [RH = 86%]
Pressure (altimeter): 30.09 inches Hg (1019.0 mb)
Winds: from the SW (220 degrees) at 20 MPH (17 knots; 8.7 m/s)
Visibility: 6 or more miles (10+ km)
Ceiling: 1800 feet AGL
Clouds: broken clouds at 1800 feet AGL
overcast cloud deck at 7600 feet AGL
Weather: DRSN  (low drifting snow)

METAR text: UACK 231000Z 22009MPS 9999 DRSN BKN044 OVC076 M06/M08 Q1019 R20/810260 NOSIG RMK QFE741/0988
Conditions at: UACK (KOKSHETAU , KZ) observed 1000 UTC 23 January 2019
Temperature: -6.0°C (21°F)
Dewpoint: -8.0°C (18°F) [RH = 86%]
Pressure (altimeter): 30.09 inches Hg (1019.0 mb)
Winds: from the SW (220 degrees) at 20 MPH (17 knots; 8.7 m/s)
Visibility: 6 or more miles (10+ km)
Ceiling: 4400 feet AGL
Clouds: broken clouds at 4400 feet AGL
overcast cloud deck at 7600 feet AGL
Weather: DRSN  (low drifting snow)

METAR text: UACK 230930Z 22009MPS 9999 DRSN NSC M06/M08 Q1019 R20/390039 NOSIG RMK QFE741/0988
Conditions at: UACK (KOKSHETAU , KZ) observed 0930 UTC 23 January 2019
Temperature: -6.0°C (21°F)
Dewpoint: -8.0°C (18°F) [RH = 86%]
Pressure (altimeter): 30.09 inches Hg (1019.0 mb)
Winds: from the SW (220 degrees) at 20 MPH (17 knots; 8.7 m/s)
Visibility: 6 or more miles (10+ km)
Ceiling: at least 12,000 feet AGL
Clouds: sky clear below 12,000 feet AGL
Weather: DRSN  (low drifting snow)

METAR text: UACK 230900Z 22009MPS 9999 DRSN BKN028 OVC076 M06/M08 Q1019 R20/390039 NOSIG RMK QFE741/0988
Conditions at: UACK (KOKSHETAU , KZ) observed 0900 UTC 23 January 2019
Temperature: -6.0°C (21°F)
Dewpoint: -8.0°C (18°F) [RH = 86%]
Pressure (altimeter): 30.09 inches Hg (1019.0 mb)
Winds: from the SW (220 degrees) at 20 MPH (17 knots; 8.7 m/s)
Visibility: 6 or more miles (10+ km)
Ceiling: 2800 feet AGL
Clouds: broken clouds at 2800 feet AGL
overcast cloud deck at 7600 feet AGL
Weather: DRSN  (low drifting snow)

METAR text: UACK 230830Z 22010MPS 9999 DRSN BKN024 OVC076 M06/M09 Q1019 R20/390039 NOSIG RMK QFE741/0988
Conditions at: UACK (KOKSHETAU , KZ) observed 0830 UTC 23 January 2019
Temperature: -6.0°C (21°F)
Dewpoint: -9.0°C (16°F) [RH = 79%]
Pressure (altimeter): 30.09 inches Hg (1019.0 mb)
Winds: from the SW (220 degrees) at 22 MPH (19 knots; 9.8 m/s)
Visibility: 6 or more miles (10+ km)
Ceiling: 2400 feet AGL
Clouds: broken clouds at 2400 feet AGL
overcast cloud deck at 7600 feet AGL
Weather: DRSN  (low drifting snow)

METAR text: UACK 230800Z 22009MPS 9999 DRSN NSC M07/M09 Q1019 R20/390039 NOSIG RMK QFE741/0988
Conditions at: UACK (KOKSHETAU , KZ) observed 0800 UTC 23 January 2019
Temperature: -7.0°C (19°F)
Dewpoint: -9.0°C (16°F) [RH = 86%]
Pressure (altimeter): 30.09 inches Hg (1019.0 mb)
Winds: from the SW (220 degrees) at 20 MPH (17 knots; 8.7 m/s)
Visibility: 6 or more miles (10+ km)
Ceiling: at least 12,000 feet AGL
Clouds: sky clear below 12,000 feet AGL
Weather: DRSN  (low drifting snow)

METAR text: UACK 230730Z 21010MPS 9999 DRSN NSC M07/M09 Q1019 R20/390039 NOSIG RMK QFE741/0988
Conditions at: UACK (KOKSHETAU , KZ) observed 0730 UTC 23 January 2019
Temperature: -7.0°C (19°F)
Dewpoint: -9.0°C (16°F) [RH = 86%]
Pressure (altimeter): 30.09 inches Hg (1019.0 mb)
Winds: from the SSW (210 degrees) at 22 MPH (19 knots; 9.8 m/s)
Visibility: 6 or more miles (10+ km)
Ceiling: at least 12,000 feet AGL
Clouds: sky clear below 12,000 feet AGL
Weather: DRSN  (low drifting snow)

METAR text: UACK 230700Z 22009MPS 9999 DRSN SCT047 OVC076 M06/M09 Q1019 R20/390039 NOSIG RMK QFE741/0988
Conditions at: UACK (KOKSHETAU , KZ) observed 0700 UTC 23 January 2019
Temperature: -6.0°C (21°F)
Dewpoint: -9.0°C (16°F) [RH = 79%]
Pressure (altimeter): 30.09 inches Hg (1019.0 mb)
Winds: from the SW (220 degrees) at 20 MPH (17 knots; 8.7 m/s)
Visibility: 6 or more miles (10+ km)
Ceiling: 7600 feet AGL
Clouds: scattered clouds at 4700 feet AGL
overcast cloud deck at 7600 feet AGL
Weather: DRSN  (low drifting snow)

METAR text: UACK 230630Z 21008MPS 9999 DRSN OVC023 M06/M09 Q1019 R20/390039 NOSIG RMK QFE741/0988
Conditions at: UACK (KOKSHETAU , KZ) observed 0630 UTC 23 January 2019
Temperature: -6.0°C (21°F)
Dewpoint: -9.0°C (16°F) [RH = 79%]
Pressure (altimeter): 30.09 inches Hg (1019.0 mb)
Winds: from the SSW (210 degrees) at 18 MPH (16 knots; 8.2 m/s)
Visibility: 6 or more miles (10+ km)
Ceiling: 2300 feet AGL
Clouds: overcast cloud deck at 2300 feet AGL
Weather: DRSN  (low drifting snow)

METAR text: UACK 230600Z 22008MPS 9999 DRSN OVC024 M06/M09 Q1020 R20/390039 NOSIG RMK QFE741/0988
Conditions at: UACK (KOKSHETAU , KZ) observed 0600 UTC 23 January 2019
Temperature: -6.0°C (21°F)
Dewpoint: -9.0°C (16°F) [RH = 79%]
Pressure (altimeter): 30.12 inches Hg (1020.0 mb)
Winds: from the SW (220 degrees) at 18 MPH (16 knots; 8.2 m/s)
Visibility: 6 or more miles (10+ km)
Ceiling: 2400 feet AGL
Clouds: overcast cloud deck at 2400 feet AGL
Weather: DRSN  (low drifting snow)

METAR text: UACK 230530Z 21008MPS 9999 DRSN OVC020 M07/M09 Q1019 R20/390039 NOSIG RMK QFE741/0988
Conditions at: UACK (KOKSHETAU , KZ) observed 0530 UTC 23 January 2019
Temperature: -7.0°C (19°F)
Dewpoint: -9.0°C (16°F) [RH = 86%]
Pressure (altimeter): 30.09 inches Hg (1019.0 mb)
Winds: from the SSW (210 degrees) at 18 MPH (16 knots; 8.2 m/s)
Visibility: 6 or more miles (10+ km)
Ceiling: 2000 feet AGL
Clouds: overcast cloud deck at 2000 feet AGL
Weather: DRSN  (low drifting snow)

METAR text: UACK 230500Z 21010MPS 9999 DRSN OVC026 M07/M09 Q1019 R20/390039 NOSIG RMK QFE741/0988
Conditions at: UACK (KOKSHETAU , KZ) observed 0500 UTC 23 January 2019
Temperature: -7.0°C (19°F)
Dewpoint: -9.0°C (16°F) [RH = 86%]
Pressure (altimeter): 30.09 inches Hg (1019.0 mb)
Winds: from the SSW (210 degrees) at 22 MPH (19 knots; 9.8 m/s)
Visibility: 6 or more miles (10+ km)
Ceiling: 2600 feet AGL
Clouds: overcast cloud deck at 2600 feet AGL
Weather: DRSN  (low drifting snow)

METAR text: UACK 230430Z 21011MPS 9999 DRSN OVC025 M08/M10 Q1019 R20/390039 NOSIG RMK QFE740/0987
Conditions at: UACK (KOKSHETAU , KZ) observed 0430 UTC 23 January 2019
Temperature: -8.0°C (18°F)
Dewpoint: -10.0°C (14°F) [RH = 85%]
Pressure (altimeter): 30.09 inches Hg (1019.0 mb)
Winds: from the SSW (210 degrees) at 24 MPH (21 knots; 10.8 m/s)
Visibility: 6 or more miles (10+ km)
Ceiling: 2500 feet AGL
Clouds: overcast cloud deck at 2500 feet AGL
Weather: DRSN  (low drifting snow)

METAR text: UACK 230400Z 21009MPS 9999 DRSN OVC025 M08/M10 Q1019 R20/390039 NOSIG RMK QFE741/0988
Conditions at: UACK (KOKSHETAU , KZ) observed 0400 UTC 23 January 2019
Temperature: -8.0°C (18°F)
Dewpoint: -10.0°C (14°F) [RH = 85%]
Pressure (altimeter): 30.09 inches Hg (1019.0 mb)
Winds: from the SSW (210 degrees) at 20 MPH (17 knots; 8.7 m/s)
Visibility: 6 or more miles (10+ km)
Ceiling: 2500 feet AGL
Clouds: overcast cloud deck at 2500 feet AGL
Weather: DRSN  (low drifting snow)

METAR text: UACK 230330Z 21009MPS 9999 DRSN NSC M08/M10 Q1019 NOSIG RMK QFE740/0987
Conditions at: UACK (KOKSHETAU , KZ) observed 0330 UTC 23 January 2019
Temperature: -8.0°C (18°F)
Dewpoint: -10.0°C (14°F) [RH = 85%]
Pressure (altimeter): 30.09 inches Hg (1019.0 mb)
Winds: from the SSW (210 degrees) at 20 MPH (17 knots; 8.7 m/s)
Visibility: 6 or more miles (10+ km)
Ceiling: at least 12,000 feet AGL
Clouds: sky clear below 12,000 feet AGL
Weather: DRSN  (low drifting snow)

METAR text: UACK 230300Z 21010MPS 9999 DRSN OVC019 M07/M10 Q1019 NOSIG RMK QFE740/0987
Conditions at: UACK (KOKSHETAU , KZ) observed 0300 UTC 23 January 2019
Temperature: -7.0°C (19°F)
Dewpoint: -10.0°C (14°F) [RH = 79%]
Pressure (altimeter): 30.09 inches Hg (1019.0 mb)
Winds: from the SSW (210 degrees) at 22 MPH (19 knots; 9.8 m/s)
Visibility: 6 or more miles (10+ km)
Ceiling: 1900 feet AGL
Clouds: overcast cloud deck at 1900 feet AGL
Weather: DRSN  (low drifting snow)

METAR text: UACK 230230Z 21007MPS 9999 DRSN OVC018 M08/M10 Q1019 NOSIG RMK QFE740/0987
Conditions at: UACK (KOKSHETAU , KZ) observed 0230 UTC 23 January 2019
Temperature: -8.0°C (18°F)
Dewpoint: -10.0°C (14°F) [RH = 85%]
Pressure (altimeter): 30.09 inches Hg (1019.0 mb)
Winds: from the SSW (210 degrees) at 16 MPH (14 knots; 7.2 m/s)
Visibility: 6 or more miles (10+ km)
Ceiling: 1800 feet AGL
Clouds: overcast cloud deck at 1800 feet AGL
Weather: DRSN  (low drifting snow)

METAR text: UACK 230200Z 22007MPS 9999 DRSN OVC020 M08/M10 Q1019 NOSIG RMK QFE740/0987
Conditions at: UACK (KOKSHETAU , KZ) observed 0200 UTC 23 January 2019
Temperature: -8.0°C (18°F)
Dewpoint: -10.0°C (14°F) [RH = 85%]
Pressure (altimeter): 30.09 inches Hg (1019.0 mb)
Winds: from the SW (220 degrees) at 16 MPH (14 knots; 7.2 m/s)
Visibility: 6 or more miles (10+ km)
Ceiling: 2000 feet AGL
Clouds: overcast cloud deck at 2000 feet AGL
Weather: DRSN  (low drifting snow)

METAR text: UACK 221130Z 20010MPS 9000 BLSN SCT008 M14/M16 Q1022 R20/820255 NOSIG RMK QFE743/0991
Conditions at: UACK (KOKSHETAU , KZ) observed 1130 UTC 22 January 2019
Temperature: -14.0°C ( 7°F)
Dewpoint: -16.0°C ( 3°F) [RH = 85%]
Pressure (altimeter): 30.18 inches Hg (1022.0 mb)
Winds: from the SSW (200 degrees) at 22 MPH (19 knots; 9.8 m/s)
Visibility: 6 miles ( 9 km)
Ceiling: at least 12,000 feet AGL
Clouds: scattered clouds at 800 feet AGL
Weather: BLSN  (blowing snow)

METAR text: UACK 221100Z 20011MPS 9000 BLSN NSC M13/M15 Q1022 R20/820255 NOSIG RMK QFE743/0991
Conditions at: UACK (KOKSHETAU , KZ) observed 1100 UTC 22 January 2019
Temperature: -13.0°C ( 9°F)
Dewpoint: -15.0°C ( 5°F) [RH = 85%]
Pressure (altimeter): 30.18 inches Hg (1022.0 mb)
Winds: from the SSW (200 degrees) at 24 MPH (21 knots; 10.8 m/s)
Visibility: 6 miles ( 9 km)
Ceiling: at least 12,000 feet AGL
Clouds: sky clear below 12,000 feet AGL
Weather: BLSN  (blowing snow)

METAR text: UACK 221030Z 19008MPS 8000 BLSN NSC M14/M16 Q1023 R20/820255 NOSIG RMK QFE743/0991
Conditions at: UACK (KOKSHETAU , KZ) observed 1030 UTC 22 January 2019
Temperature: -14.0°C ( 7°F)
Dewpoint: -16.0°C ( 3°F) [RH = 85%]
Pressure (altimeter): 30.21 inches Hg (1023.0 mb)
Winds: from the S (190 degrees) at 18 MPH (16 knots; 8.2 m/s)
Visibility: 5 miles ( 8 km)
Ceiling: at least 12,000 feet AGL
Clouds: sky clear below 12,000 feet AGL
Weather: BLSN  (blowing snow)

METAR text: UACK 221000Z 19008MPS 9999 DRSN NSC M15/M18 Q1023 R20/820255 NOSIG RMK QFE743/0991
Conditions at: UACK (KOKSHETAU , KZ) observed 1000 UTC 22 January 2019
Temperature: -15.0°C ( 5°F)
Dewpoint: -18.0°C (-0°F) [RH = 78%]
Pressure (altimeter): 30.21 inches Hg (1023.0 mb)
Winds: from the S (190 degrees) at 18 MPH (16 knots; 8.2 m/s)
Visibility: 6 or more miles (10+ km)
Ceiling: at least 12,000 feet AGL
Clouds: sky clear below 12,000 feet AGL
Weather: DRSN  (low drifting snow)

METAR text: UACK 220930Z 19008MPS 7000 BLSN NSC M15/M17 Q1023 R20/820255 NOSIG RMK QFE743/0991
Conditions at: UACK (KOKSHETAU , KZ) observed 0930 UTC 22 January 2019
Temperature: -15.0°C ( 5°F)
Dewpoint: -17.0°C ( 1°F) [RH = 85%]
Pressure (altimeter): 30.21 inches Hg (1023.0 mb)
Winds: from the S (190 degrees) at 18 MPH (16 knots; 8.2 m/s)
Visibility: 4 miles ( 7 km)
Ceiling: at least 12,000 feet AGL
Clouds: sky clear below 12,000 feet AGL
Weather: BLSN  (blowing snow)

METAR text: UACK 220900Z 20008MPS 9999 DRSN NSC M15/M17 Q1023 R20/820255 NOSIG RMK QFE744/0992
Conditions at: UACK (KOKSHETAU , KZ) observed 0900 UTC 22 January 2019
Temperature: -15.0°C ( 5°F)
Dewpoint: -17.0°C ( 1°F) [RH = 85%]
Pressure (altimeter): 30.21 inches Hg (1023.0 mb)
Winds: from the SSW (200 degrees) at 18 MPH (16 knots; 8.2 m/s)
Visibility: 6 or more miles (10+ km)
Ceiling: at least 12,000 feet AGL
Clouds: sky clear below 12,000 feet AGL
Weather: DRSN  (low drifting snow)

METAR text: UACK 220830Z 18007MPS 9999 DRSN NSC M15/M18 Q1024 R20/820255 NOSIG RMK QFE744/0992
Conditions at: UACK (KOKSHETAU , KZ) observed 0830 UTC 22 January 2019
Temperature: -15.0°C ( 5°F)
Dewpoint: -18.0°C (-0°F) [RH = 78%]
Pressure (altimeter): 30.24 inches Hg (1024.0 mb)
Winds: from the S (180 degrees) at 16 MPH (14 knots; 7.2 m/s)
Visibility: 6 or more miles (10+ km)
Ceiling: at least 12,000 feet AGL
Clouds: sky clear below 12,000 feet AGL
Weather: DRSN  (low drifting snow)